sensor_id;sensor_type;location;lat;lon;timestamp;noise_LAeq;noise_LA_min;noise_LA_max;noise_LA01;noise_LA95
64077;Laerm;51039;49.696;10.808;2023-09-18T00:00:14;38.94;37.83;40.05;;
64077;Laerm;51039;49.696;10.808;2023-09-18T00:02:39;38.96;37.87;40.13;;
64077;Laerm;51039;49.696;10.808;2023-09-18T00:05:05;39.01;37.80;40.28;;
64077;Laerm;51039;49.696;10.808;2023-09-18T00:07:30;39.02;37.92;40.10;;
64077;Laerm;51039;49.696;10.808;2023-09-18T00:09:55;39.01;37.95;40.09;;
64077;Laerm;51039;49.696;10.808;2023-09-18T00:12:21;39.02;37.84;43.04;;
64077;Laerm;51039;49.696;10.808;2023-09-18T00:14:50;39.02;37.90;40.87;;
64077;Laerm;51039;49.696;10.808;2023-09-18T00:17:16;39.01;37.90;41.68;;
64077;Laerm;51039;49.696;10.808;2023-09-18T00:19:44;39.03;37.79;41.28;;
64077;Laerm;51039;49.696;10.808;2023-09-18T00:22:10;38.97;37.61;40.04;;
64077;Laerm;51039;49.696;10.808;2023-09-18T00:24:35;38.96;37.64;40.06;;
64077;Laerm;51039;49.696;10.808;2023-09-18T00:27:01;38.93;37.65;39.97;;
64077;Laerm;51039;49.696;10.808;2023-09-18T00:29:26;38.88;37.71;40.14;;
64077;Laerm;51039;49.696;10.808;2023-09-18T00:31:51;38.85;37.79;40.00;;
64077;Laerm;51039;49.696;10.808;2023-09-18T00:34:17;38.80;37.57;39.96;;
64077;Laerm;51039;49.696;10.808;2023-09-18T00:36:42;38.77;37.55;39.89;;
64077;Laerm;51039;49.696;10.808;2023-09-18T00:39:07;38.77;37.29;39.91;;
64077;Laerm;51039;49.696;10.808;2023-09-18T00:41:33;38.74;37.61;39.94;;
64077;Laerm;51039;49.696;10.808;2023-09-18T00:43:58;38.74;37.46;39.93;;
64077;Laerm;51039;49.696;10.808;2023-09-18T00:46:23;38.73;37.64;40.00;;
64077;Laerm;51039;49.696;10.808;2023-09-18T00:48:49;38.72;37.44;39.86;;
64077;Laerm;51039;49.696;10.808;2023-09-18T00:51:16;38.71;37.29;39.92;;
64077;Laerm;51039;49.696;10.808;2023-09-18T00:53:45;38.70;37.38;39.88;;
64077;Laerm;51039;49.696;10.808;2023-09-18T00:56:13;38.68;37.40;39.80;;
64077;Laerm;51039;49.696;10.808;2023-09-18T00:58:39;38.66;37.50;39.77;;
64077;Laerm;51039;49.696;10.808;2023-09-18T01:01:04;38.67;37.48;40.10;;
64077;Laerm;51039;49.696;10.808;2023-09-18T01:03:30;38.67;37.42;39.90;;
64077;Laerm;51039;49.696;10.808;2023-09-18T01:05:55;38.66;37.32;39.95;;
64077;Laerm;51039;49.696;10.808;2023-09-18T01:08:21;38.67;37.14;39.66;;
64077;Laerm;51039;49.696;10.808;2023-09-18T01:10:55;38.66;37.47;39.67;;
64077;Laerm;51039;49.696;10.808;2023-09-18T01:13:29;38.65;37.61;39.76;;
64077;Laerm;51039;49.696;10.808;2023-09-18T01:15:59;38.64;37.39;39.74;;
64077;Laerm;51039;49.696;10.808;2023-09-18T01:18:25;38.61;37.24;39.67;;
64077;Laerm;51039;49.696;10.808;2023-09-18T01:20:51;38.59;37.51;39.88;;
64077;Laerm;51039;49.696;10.808;2023-09-18T01:23:16;38.58;37.40;39.66;;
64077;Laerm;51039;49.696;10.808;2023-09-18T01:25:41;38.58;37.45;39.66;;
64077;Laerm;51039;49.696;10.808;2023-09-18T01:28:06;38.57;37.44;39.65;;
64077;Laerm;51039;49.696;10.808;2023-09-18T01:30:32;38.56;37.43;39.74;;
64077;Laerm;51039;49.696;10.808;2023-09-18T01:33:01;38.56;37.28;40.05;;
64077;Laerm;51039;49.696;10.808;2023-09-18T01:35:29;38.57;37.30;39.73;;
64077;Laerm;51039;49.696;10.808;2023-09-18T01:37:59;38.55;37.26;39.67;;
64077;Laerm;51039;49.696;10.808;2023-09-18T01:40:25;38.54;37.42;39.69;;
64077;Laerm;51039;49.696;10.808;2023-09-18T01:42:51;38.53;37.41;39.62;;
64077;Laerm;51039;49.696;10.808;2023-09-18T01:45:17;38.53;37.27;39.66;;
64077;Laerm;51039;49.696;10.808;2023-09-18T01:47:42;38.54;37.40;39.80;;
64077;Laerm;51039;49.696;10.808;2023-09-18T01:50:08;38.57;37.32;39.76;;
64077;Laerm;51039;49.696;10.808;2023-09-18T01:52:34;38.55;37.22;39.62;;
64077;Laerm;51039;49.696;10.808;2023-09-18T01:55:02;38.56;37.29;39.67;;
64077;Laerm;51039;49.696;10.808;2023-09-18T01:57:31;38.59;37.53;39.89;;
64077;Laerm;51039;49.696;10.808;2023-09-18T01:59:56;38.61;37.56;39.87;;
64077;Laerm;51039;49.696;10.808;2023-09-18T02:02:21;38.61;37.14;39.80;;
64077;Laerm;51039;49.696;10.808;2023-09-18T02:04:47;38.54;37.32;39.66;;
64077;Laerm;51039;49.696;10.808;2023-09-18T02:07:12;38.55;37.39;39.90;;
64077;Laerm;51039;49.696;10.808;2023-09-18T02:09:38;38.57;37.29;39.59;;
64077;Laerm;51039;49.696;10.808;2023-09-18T02:12:04;38.57;37.47;39.62;;
64077;Laerm;51039;49.696;10.808;2023-09-18T02:14:29;38.59;37.43;39.70;;
64077;Laerm;51039;49.696;10.808;2023-09-18T02:16:56;38.61;37.37;39.63;;
64077;Laerm;51039;49.696;10.808;2023-09-18T02:19:21;38.62;37.14;39.71;;
64077;Laerm;51039;49.696;10.808;2023-09-18T02:21:46;38.62;37.29;39.70;;
64077;Laerm;51039;49.696;10.808;2023-09-18T02:24:12;38.63;37.43;39.68;;
64077;Laerm;51039;49.696;10.808;2023-09-18T02:26:37;38.68;37.58;39.72;;
64077;Laerm;51039;49.696;10.808;2023-09-18T02:29:06;38.70;37.58;39.71;;
64077;Laerm;51039;49.696;10.808;2023-09-18T02:31:31;38.71;37.58;39.88;;
64077;Laerm;51039;49.696;10.808;2023-09-18T02:33:57;38.72;37.37;40.29;;
64077;Laerm;51039;49.696;10.808;2023-09-18T02:36:22;38.73;37.44;39.91;;
64077;Laerm;51039;49.696;10.808;2023-09-18T02:38:47;38.74;37.61;39.92;;
64077;Laerm;51039;49.696;10.808;2023-09-18T02:41:12;38.74;37.53;40.09;;
64077;Laerm;51039;49.696;10.808;2023-09-18T02:43:38;38.75;37.55;40.15;;
64077;Laerm;51039;49.696;10.808;2023-09-18T02:46:04;38.75;37.56;39.91;;
64077;Laerm;51039;49.696;10.808;2023-09-18T02:48:30;38.75;37.69;39.83;;
64077;Laerm;51039;49.696;10.808;2023-09-18T02:50:56;38.75;37.47;39.84;;
64077;Laerm;51039;49.696;10.808;2023-09-18T02:53:23;38.75;37.59;39.92;;
64077;Laerm;51039;49.696;10.808;2023-09-18T02:55:50;38.74;37.48;39.87;;
64077;Laerm;51039;49.696;10.808;2023-09-18T02:58:16;38.75;37.43;39.79;;
64077;Laerm;51039;49.696;10.808;2023-09-18T03:00:46;38.73;37.67;39.83;;
64077;Laerm;51039;49.696;10.808;2023-09-18T03:03:12;38.69;37.40;39.82;;
64077;Laerm;51039;49.696;10.808;2023-09-18T03:05:38;38.66;37.47;39.75;;
64077;Laerm;51039;49.696;10.808;2023-09-18T03:08:04;38.66;37.52;39.77;;
64077;Laerm;51039;49.696;10.808;2023-09-18T03:10:33;38.70;37.43;39.78;;
64077;Laerm;51039;49.696;10.808;2023-09-18T03:13:00;38.72;37.58;39.90;;
64077;Laerm;51039;49.696;10.808;2023-09-18T03:15:25;38.76;37.30;39.90;;
64077;Laerm;51039;49.696;10.808;2023-09-18T03:17:50;38.77;37.60;39.94;;
64077;Laerm;51039;49.696;10.808;2023-09-18T03:20:16;38.78;37.48;40.08;;
64077;Laerm;51039;49.696;10.808;2023-09-18T03:22:41;38.77;37.56;39.90;;
64077;Laerm;51039;49.696;10.808;2023-09-18T03:25:06;38.78;37.63;40.25;;
64077;Laerm;51039;49.696;10.808;2023-09-18T03:27:32;38.79;37.60;40.03;;
64077;Laerm;51039;49.696;10.808;2023-09-18T03:29:58;38.79;37.71;39.88;;
64077;Laerm;51039;49.696;10.808;2023-09-18T03:32:23;38.79;37.47;39.85;;
64077;Laerm;51039;49.696;10.808;2023-09-18T03:34:51;38.80;37.62;40.17;;
64077;Laerm;51039;49.696;10.808;2023-09-18T03:37:16;38.80;37.23;40.03;;
64077;Laerm;51039;49.696;10.808;2023-09-18T03:39:42;38.82;37.67;40.06;;
64077;Laerm;51039;49.696;10.808;2023-09-18T03:42:07;38.85;37.52;39.97;;
64077;Laerm;51039;49.696;10.808;2023-09-18T03:44:32;38.87;37.72;40.13;;
64077;Laerm;51039;49.696;10.808;2023-09-18T03:46:58;38.88;37.55;40.01;;
64077;Laerm;51039;49.696;10.808;2023-09-18T03:49:23;38.88;37.39;40.12;;
64077;Laerm;51039;49.696;10.808;2023-09-18T03:51:48;38.88;37.70;40.42;;
64077;Laerm;51039;49.696;10.808;2023-09-18T03:54:14;38.87;37.65;40.09;;
64077;Laerm;51039;49.696;10.808;2023-09-18T03:56:40;38.85;37.63;39.98;;
64077;Laerm;51039;49.696;10.808;2023-09-18T03:59:05;38.84;37.76;39.87;;
64077;Laerm;51039;49.696;10.808;2023-09-18T04:01:31;38.83;37.68;39.90;;
64077;Laerm;51039;49.696;10.808;2023-09-18T04:03:56;38.83;37.63;39.93;;
64077;Laerm;51039;49.696;10.808;2023-09-18T04:06:22;38.81;37.28;39.98;;
64077;Laerm;51039;49.696;10.808;2023-09-18T04:08:50;38.79;37.43;40.06;;
64077;Laerm;51039;49.696;10.808;2023-09-18T04:11:16;38.78;37.39;40.01;;
64077;Laerm;51039;49.696;10.808;2023-09-18T04:13:41;38.76;37.45;40.29;;
64077;Laerm;51039;49.696;10.808;2023-09-18T04:16:06;38.73;37.41;39.91;;
64077;Laerm;51039;49.696;10.808;2023-09-18T04:18:32;38.75;37.60;39.80;;
64077;Laerm;51039;49.696;10.808;2023-09-18T04:20:58;38.77;37.56;39.95;;
64077;Laerm;51039;49.696;10.808;2023-09-18T04:23:27;38.78;37.43;39.88;;
64077;Laerm;51039;49.696;10.808;2023-09-18T04:25:53;38.81;37.54;39.94;;
64077;Laerm;51039;49.696;10.808;2023-09-18T04:28:21;38.81;37.64;39.92;;
64077;Laerm;51039;49.696;10.808;2023-09-18T04:30:46;38.85;37.68;40.14;;
64077;Laerm;51039;49.696;10.808;2023-09-18T04:33:16;38.86;37.68;39.83;;
64077;Laerm;51039;49.696;10.808;2023-09-18T04:35:42;38.89;37.65;40.20;;
64077;Laerm;51039;49.696;10.808;2023-09-18T04:38:08;38.91;37.81;40.05;;
64077;Laerm;51039;49.696;10.808;2023-09-18T04:40:34;38.94;37.83;40.19;;
64077;Laerm;51039;49.696;10.808;2023-09-18T04:43:00;38.94;37.77;40.03;;
64077;Laerm;51039;49.696;10.808;2023-09-18T04:45:25;38.95;37.72;40.13;;
64077;Laerm;51039;49.696;10.808;2023-09-18T04:47:51;38.94;37.65;39.98;;
64077;Laerm;51039;49.696;10.808;2023-09-18T04:50:17;38.93;37.50;40.14;;
64077;Laerm;51039;49.696;10.808;2023-09-18T04:52:42;38.91;37.73;40.16;;
64077;Laerm;51039;49.696;10.808;2023-09-18T04:55:09;38.90;37.81;40.01;;
64077;Laerm;51039;49.696;10.808;2023-09-18T04:57:34;38.90;37.68;40.10;;
64077;Laerm;51039;49.696;10.808;2023-09-18T05:00:01;38.88;37.74;40.09;;
64077;Laerm;51039;49.696;10.808;2023-09-18T05:02:26;38.88;37.80;40.05;;
64077;Laerm;51039;49.696;10.808;2023-09-18T05:04:51;38.89;37.68;39.97;;
64077;Laerm;51039;49.696;10.808;2023-09-18T05:07:17;38.93;37.78;40.07;;
64077;Laerm;51039;49.696;10.808;2023-09-18T05:09:42;38.93;37.82;40.06;;
64077;Laerm;51039;49.696;10.808;2023-09-18T05:12:08;38.93;37.80;39.95;;
64077;Laerm;51039;49.696;10.808;2023-09-18T05:14:41;38.93;37.76;39.94;;
64077;Laerm;51039;49.696;10.808;2023-09-18T05:17:10;38.91;37.71;40.12;;
64077;Laerm;51039;49.696;10.808;2023-09-18T05:19:37;38.91;37.75;39.96;;
64077;Laerm;51039;49.696;10.808;2023-09-18T05:22:02;38.91;37.58;39.89;;
64077;Laerm;51039;49.696;10.808;2023-09-18T05:24:28;38.90;37.63;40.33;;
64077;Laerm;51039;49.696;10.808;2023-09-18T05:26:54;38.89;37.73;40.15;;
64077;Laerm;51039;49.696;10.808;2023-09-18T05:29:19;38.91;37.81;40.12;;
64077;Laerm;51039;49.696;10.808;2023-09-18T05:31:45;38.92;37.61;40.21;;
64077;Laerm;51039;49.696;10.808;2023-09-18T05:34:11;38.93;37.72;40.01;;
64077;Laerm;51039;49.696;10.808;2023-09-18T05:36:37;38.93;37.62;40.07;;
64077;Laerm;51039;49.696;10.808;2023-09-18T05:39:02;38.94;37.77;39.92;;
64077;Laerm;51039;49.696;10.808;2023-09-18T05:41:28;38.97;37.46;40.04;;
64077;Laerm;51039;49.696;10.808;2023-09-18T05:43:54;38.99;37.77;40.06;;
64077;Laerm;51039;49.696;10.808;2023-09-18T05:46:20;39.02;37.64;40.14;;
64077;Laerm;51039;49.696;10.808;2023-09-18T05:48:45;39.06;37.93;40.14;;
64077;Laerm;51039;49.696;10.808;2023-09-18T05:51:10;39.06;37.95;40.18;;
64077;Laerm;51039;49.696;10.808;2023-09-18T05:53:36;39.08;37.95;40.33;;
64077;Laerm;51039;49.696;10.808;2023-09-18T05:56:03;39.09;37.82;40.43;;
64077;Laerm;51039;49.696;10.808;2023-09-18T05:58:30;39.11;37.83;40.22;;
64077;Laerm;51039;49.696;10.808;2023-09-18T06:00:58;39.13;37.78;40.30;;
64077;Laerm;51039;49.696;10.808;2023-09-18T06:03:23;39.15;37.84;40.45;;
64077;Laerm;51039;49.696;10.808;2023-09-18T06:05:48;39.18;38.03;40.40;;
64077;Laerm;51039;49.696;10.808;2023-09-18T06:08:14;39.23;38.06;40.36;;
64077;Laerm;51039;49.696;10.808;2023-09-18T06:10:39;39.26;38.14;40.37;;
64077;Laerm;51039;49.696;10.808;2023-09-18T06:13:04;39.30;38.09;40.42;;
64077;Laerm;51039;49.696;10.808;2023-09-18T06:15:31;39.33;38.19;40.39;;
64077;Laerm;51039;49.696;10.808;2023-09-18T06:17:56;39.39;38.17;40.34;;
64077;Laerm;51039;49.696;10.808;2023-09-18T06:20:22;39.40;38.23;40.85;;
64077;Laerm;51039;49.696;10.808;2023-09-18T06:22:47;39.42;38.10;40.68;;
64077;Laerm;51039;49.696;10.808;2023-09-18T06:25:12;39.46;38.22;40.64;;
64077;Laerm;51039;49.696;10.808;2023-09-18T06:27:40;39.44;38.21;40.75;;
64077;Laerm;51039;49.696;10.808;2023-09-18T06:30:06;39.39;38.23;40.51;;
64077;Laerm;51039;49.696;10.808;2023-09-18T06:32:32;39.32;38.19;40.31;;
64077;Laerm;51039;49.696;10.808;2023-09-18T06:34:57;39.27;38.06;40.41;;
64077;Laerm;51039;49.696;10.808;2023-09-18T06:37:23;39.28;38.25;40.49;;
64077;Laerm;51039;49.696;10.808;2023-09-18T06:39:49;39.29;38.07;40.43;;
64077;Laerm;51039;49.696;10.808;2023-09-18T06:42:14;39.29;38.09;40.45;;
64077;Laerm;51039;49.696;10.808;2023-09-18T06:44:39;39.31;38.12;40.51;;
64077;Laerm;51039;49.696;10.808;2023-09-18T06:47:04;39.32;38.18;40.35;;
64077;Laerm;51039;49.696;10.808;2023-09-18T06:49:30;39.35;38.19;40.45;;
64077;Laerm;51039;49.696;10.808;2023-09-18T06:51:56;39.36;38.07;40.36;;
64077;Laerm;51039;49.696;10.808;2023-09-18T06:54:21;39.38;38.16;40.44;;
64077;Laerm;51039;49.696;10.808;2023-09-18T06:56:46;39.41;38.19;40.57;;
64077;Laerm;51039;49.696;10.808;2023-09-18T06:59:12;39.43;38.26;40.85;;
64077;Laerm;51039;49.696;10.808;2023-09-18T07:01:37;39.44;38.20;40.54;;
64077;Laerm;51039;49.696;10.808;2023-09-18T07:04:03;39.47;38.23;40.57;;
64077;Laerm;51039;49.696;10.808;2023-09-18T07:06:29;39.47;38.21;40.51;;
64077;Laerm;51039;49.696;10.808;2023-09-18T07:08:55;39.49;38.25;40.62;;
64077;Laerm;51039;49.696;10.808;2023-09-18T07:11:20;39.50;38.44;41.22;;
64077;Laerm;51039;49.696;10.808;2023-09-18T07:13:46;39.50;38.28;40.73;;
64077;Laerm;51039;49.696;10.808;2023-09-18T07:16:11;39.48;38.26;40.52;;
64077;Laerm;51039;49.696;10.808;2023-09-18T07:18:37;39.49;38.13;40.61;;
64077;Laerm;51039;49.696;10.808;2023-09-18T07:21:02;39.52;38.40;40.86;;
64077;Laerm;51039;49.696;10.808;2023-09-18T07:23:27;39.59;38.31;40.63;;
64077;Laerm;51039;49.696;10.808;2023-09-18T07:25:53;39.65;38.47;40.74;;
64077;Laerm;51039;49.696;10.808;2023-09-18T07:28:18;39.68;38.39;40.82;;
64077;Laerm;51039;49.696;10.808;2023-09-18T07:30:45;39.82;38.54;40.87;;
64077;Laerm;51039;49.696;10.808;2023-09-18T07:33:11;39.97;38.81;41.10;;
64077;Laerm;51039;49.696;10.808;2023-09-18T07:35:37;40.23;38.83;41.55;;
64077;Laerm;51039;49.696;10.808;2023-09-18T07:38:03;40.46;39.35;41.60;;
64077;Laerm;51039;49.696;10.808;2023-09-18T07:40:29;40.60;39.36;41.74;;
64077;Laerm;51039;49.696;10.808;2023-09-18T07:42:54;40.76;39.49;42.00;;
64077;Laerm;51039;49.696;10.808;2023-09-18T07:45:20;40.77;39.39;41.85;;
64077;Laerm;51039;49.696;10.808;2023-09-18T07:47:45;40.76;39.60;41.95;;
64077;Laerm;51039;49.696;10.808;2023-09-18T07:50:10;40.76;39.34;41.96;;
64077;Laerm;51039;49.696;10.808;2023-09-18T07:52:36;40.75;39.62;42.02;;
64077;Laerm;51039;49.696;10.808;2023-09-18T07:55:01;40.83;39.59;41.86;;
64077;Laerm;51039;49.696;10.808;2023-09-18T07:57:27;40.83;39.62;42.15;;
64077;Laerm;51039;49.696;10.808;2023-09-18T07:59:57;40.89;39.66;42.32;;
64077;Laerm;51039;49.696;10.808;2023-09-18T08:02:23;41.17;39.92;42.49;;
64077;Laerm;51039;49.696;10.808;2023-09-18T08:04:48;41.37;39.86;42.35;;
64077;Laerm;51039;49.696;10.808;2023-09-18T08:07:15;41.46;40.28;42.64;;
64077;Laerm;51039;49.696;10.808;2023-09-18T08:09:41;41.52;40.31;42.78;;
64077;Laerm;51039;49.696;10.808;2023-09-18T08:12:07;41.55;40.08;42.74;;
64077;Laerm;51039;49.696;10.808;2023-09-18T08:14:33;41.57;40.32;42.77;;
64077;Laerm;51039;49.696;10.808;2023-09-18T08:17:01;41.65;40.38;42.83;;
64077;Laerm;51039;49.696;10.808;2023-09-18T08:19:29;41.83;40.63;43.09;;
64077;Laerm;51039;49.696;10.808;2023-09-18T08:21:55;42.14;41.01;43.37;;
64077;Laerm;51039;49.696;10.808;2023-09-18T08:24:24;42.89;41.56;45.13;;
64077;Laerm;51039;49.696;10.808;2023-09-18T08:26:50;44.03;42.43;46.29;;
64077;Laerm;51039;49.696;10.808;2023-09-18T08:29:15;44.95;43.32;46.57;;
64077;Laerm;51039;49.696;10.808;2023-09-18T08:31:41;45.43;44.05;46.91;;
64077;Laerm;51039;49.696;10.808;2023-09-18T08:34:06;45.58;44.35;50.89;;
64077;Laerm;51039;49.696;10.808;2023-09-18T08:36:32;45.71;44.42;50.96;;
64077;Laerm;51039;49.696;10.808;2023-09-18T08:38:57;45.95;44.73;50.86;;
64077;Laerm;51039;49.696;10.808;2023-09-18T08:41:24;45.96;44.52;50.85;;
64077;Laerm;51039;49.696;10.808;2023-09-18T08:43:54;45.93;44.54;48.08;;
64077;Laerm;51039;49.696;10.808;2023-09-18T08:46:20;45.88;44.42;49.16;;
64077;Laerm;51039;49.696;10.808;2023-09-18T08:48:46;45.83;44.24;47.91;;
64077;Laerm;51039;49.696;10.808;2023-09-18T08:51:13;45.82;44.61;48.82;;
64077;Laerm;51039;49.696;10.808;2023-09-18T08:53:39;45.79;44.69;47.37;;
64077;Laerm;51039;49.696;10.808;2023-09-18T08:56:06;45.88;44.57;47.14;;
64077;Laerm;51039;49.696;10.808;2023-09-18T08:58:33;46.00;44.72;47.22;;
64077;Laerm;51039;49.696;10.808;2023-09-18T09:01:04;46.08;44.73;47.23;;
64077;Laerm;51039;49.696;10.808;2023-09-18T09:03:31;46.29;44.85;49.84;;
64077;Laerm;51039;49.696;10.808;2023-09-18T09:05:57;46.27;44.67;50.42;;
64077;Laerm;51039;49.696;10.808;2023-09-18T09:08:27;46.07;44.58;48.04;;
64077;Laerm;51039;49.696;10.808;2023-09-18T09:10:52;46.04;44.85;47.14;;
64077;Laerm;51039;49.696;10.808;2023-09-18T09:13:18;46.03;44.70;47.34;;
64077;Laerm;51039;49.696;10.808;2023-09-18T09:15:45;46.04;44.49;48.48;;
64077;Laerm;51039;49.696;10.808;2023-09-18T09:18:15;46.12;44.74;47.84;;
64077;Laerm;51039;49.696;10.808;2023-09-18T09:20:41;46.10;44.78;47.56;;
64077;Laerm;51039;49.696;10.808;2023-09-18T09:23:17;46.06;44.76;49.25;;
64077;Laerm;51039;49.696;10.808;2023-09-18T09:25:42;46.06;44.80;48.60;;
64077;Laerm;51039;49.696;10.808;2023-09-18T09:28:08;46.03;44.77;47.50;;
64077;Laerm;51039;49.696;10.808;2023-09-18T09:30:35;46.03;44.77;48.23;;
64077;Laerm;51039;49.696;10.808;2023-09-18T09:33:03;46.02;44.75;47.17;;
64077;Laerm;51039;49.696;10.808;2023-09-18T09:35:31;46.06;44.53;47.26;;
64077;Laerm;51039;49.696;10.808;2023-09-18T09:38:08;46.07;44.77;47.33;;
64077;Laerm;51039;49.696;10.808;2023-09-18T09:40:34;46.06;44.90;47.43;;
64077;Laerm;51039;49.696;10.808;2023-09-18T09:43:00;46.07;44.60;47.40;;
64077;Laerm;51039;49.696;10.808;2023-09-18T09:45:29;46.07;44.73;47.26;;
64077;Laerm;51039;49.696;10.808;2023-09-18T09:47:56;46.05;44.80;47.24;;
64077;Laerm;51039;49.696;10.808;2023-09-18T09:50:21;46.05;44.73;47.30;;
64077;Laerm;51039;49.696;10.808;2023-09-18T09:52:49;46.03;44.69;47.26;;
64077;Laerm;51039;49.696;10.808;2023-09-18T09:55:31;46.03;44.59;47.21;;
64077;Laerm;51039;49.696;10.808;2023-09-18T09:58:01;46.05;44.80;47.36;;
64077;Laerm;51039;49.696;10.808;2023-09-18T10:00:44;46.07;44.75;47.18;;
64077;Laerm;51039;49.696;10.808;2023-09-18T10:03:12;46.07;44.66;47.22;;
64077;Laerm;51039;49.696;10.808;2023-09-18T10:05:39;46.07;44.78;47.39;;
64077;Laerm;51039;49.696;10.808;2023-09-18T10:08:11;46.08;44.72;47.29;;
64077;Laerm;51039;49.696;10.808;2023-09-18T10:10:38;46.07;44.82;47.42;;
64077;Laerm;51039;49.696;10.808;2023-09-18T10:13:09;46.06;44.59;47.38;;
64077;Laerm;51039;49.696;10.808;2023-09-18T10:15:36;46.03;44.89;47.29;;
64077;Laerm;51039;49.696;10.808;2023-09-18T10:18:24;46.04;44.63;47.31;;
64077;Laerm;51039;49.696;10.808;2023-09-18T10:20:57;46.03;44.55;47.34;;
64077;Laerm;51039;49.696;10.808;2023-09-18T10:26:23;46.04;44.67;47.67;;
64077;Laerm;51039;49.696;10.808;2023-09-18T10:28:56;46.04;44.75;47.22;;
64077;Laerm;51039;49.696;10.808;2023-09-18T10:31:28;46.03;44.79;47.41;;
64077;Laerm;51039;49.696;10.808;2023-09-18T10:33:56;46.03;44.86;47.28;;
64077;Laerm;51039;49.696;10.808;2023-09-18T10:36:22;46.03;44.65;47.23;;
64077;Laerm;51039;49.696;10.808;2023-09-18T10:38:49;46.03;44.41;47.15;;
64077;Laerm;51039;49.696;10.808;2023-09-18T10:41:19;46.01;44.74;47.34;;
64077;Laerm;51039;49.696;10.808;2023-09-18T10:43:45;46.01;44.27;47.28;;
64077;Laerm;51039;49.696;10.808;2023-09-18T10:46:12;45.99;44.80;47.33;;
64077;Laerm;51039;49.696;10.808;2023-09-18T10:48:40;45.98;44.79;47.18;;
64077;Laerm;51039;49.696;10.808;2023-09-18T10:51:07;45.98;44.67;47.17;;
64077;Laerm;51039;49.696;10.808;2023-09-18T10:53:34;45.94;44.65;47.07;;
64077;Laerm;51039;49.696;10.808;2023-09-18T10:56:01;45.91;44.62;47.19;;
64077;Laerm;51039;49.696;10.808;2023-09-18T10:58:27;45.90;44.45;47.09;;
64077;Laerm;51039;49.696;10.808;2023-09-18T11:00:54;45.90;44.43;47.27;;
64077;Laerm;51039;49.696;10.808;2023-09-18T11:03:22;45.88;44.60;47.03;;
64077;Laerm;51039;49.696;10.808;2023-09-18T11:05:48;45.88;44.70;47.08;;
64077;Laerm;51039;49.696;10.808;2023-09-18T11:08:32;45.87;44.60;47.23;;
64077;Laerm;51039;49.696;10.808;2023-09-18T11:11:08;45.82;44.40;47.08;;
64077;Laerm;51039;49.696;10.808;2023-09-18T11:13:44;45.74;44.37;46.93;;
64077;Laerm;51039;49.696;10.808;2023-09-18T11:18:51;45.53;44.22;46.70;;
64077;Laerm;51039;49.696;10.808;2023-09-18T11:21:24;45.25;43.89;46.37;;
64077;Laerm;51039;49.696;10.808;2023-09-18T11:23:58;44.95;43.76;46.24;;
64077;Laerm;51039;49.696;10.808;2023-09-18T11:26:29;44.63;43.41;45.63;;
64077;Laerm;51039;49.696;10.808;2023-09-18T11:28:55;44.46;43.17;45.49;;
64077;Laerm;51039;49.696;10.808;2023-09-18T11:31:20;44.50;43.23;45.63;;
64077;Laerm;51039;49.696;10.808;2023-09-18T11:33:47;44.56;43.29;45.79;;
64077;Laerm;51039;49.696;10.808;2023-09-18T11:36:15;44.53;43.27;45.65;;
64077;Laerm;51039;49.696;10.808;2023-09-18T11:38:59;44.45;42.91;45.62;;
64077;Laerm;51039;49.696;10.808;2023-09-18T11:41:32;44.34;43.09;45.44;;
64077;Laerm;51039;49.696;10.808;2023-09-18T11:46:32;44.02;42.86;45.16;;
64077;Laerm;51039;49.696;10.808;2023-09-18T11:48:58;43.78;42.37;45.00;;
64077;Laerm;51039;49.696;10.808;2023-09-18T11:51:24;43.38;42.05;44.53;;
64077;Laerm;51039;49.696;10.808;2023-09-18T11:53:55;42.42;40.85;44.00;;
64077;Laerm;51039;49.696;10.808;2023-09-18T11:56:21;41.79;40.50;43.18;;
64077;Laerm;51039;49.696;10.808;2023-09-18T11:58:47;41.12;39.62;42.44;;
64077;Laerm;51039;49.696;10.808;2023-09-18T12:01:13;40.74;39.50;41.79;;
64077;Laerm;51039;49.696;10.808;2023-09-18T12:03:40;40.36;39.18;41.41;;
64077;Laerm;51039;49.696;10.808;2023-09-18T12:06:06;40.26;39.00;41.35;;
64077;Laerm;51039;49.696;10.808;2023-09-18T12:08:31;40.01;38.71;41.12;;
64077;Laerm;51039;49.696;10.808;2023-09-18T12:10:58;39.96;38.65;41.07;;
64077;Laerm;51039;49.696;10.808;2023-09-18T12:13:27;39.74;38.61;40.87;;
64077;Laerm;51039;49.696;10.808;2023-09-18T12:16:14;39.52;38.16;40.62;;
64077;Laerm;51039;49.696;10.808;2023-09-18T12:18:48;39.55;38.32;40.65;;
64077;Laerm;51039;49.696;10.808;2023-09-18T12:21:14;39.60;38.40;40.84;;
64077;Laerm;51039;49.696;10.808;2023-09-18T12:23:41;39.63;38.43;40.80;;
64077;Laerm;51039;49.696;10.808;2023-09-18T12:26:11;39.63;38.44;40.96;;
64077;Laerm;51039;49.696;10.808;2023-09-18T12:28:39;39.61;38.48;40.91;;
64077;Laerm;51039;49.696;10.808;2023-09-18T12:31:04;39.59;38.20;40.89;;
64077;Laerm;51039;49.696;10.808;2023-09-18T12:33:34;39.69;38.50;40.96;;
64077;Laerm;51039;49.696;10.808;2023-09-18T12:36:00;39.68;38.50;40.88;;
64077;Laerm;51039;49.696;10.808;2023-09-18T12:38:26;39.69;38.41;40.90;;
64077;Laerm;51039;49.696;10.808;2023-09-18T12:40:53;39.67;38.45;40.73;;
64077;Laerm;51039;49.696;10.808;2023-09-18T12:43:20;39.64;38.19;40.78;;
64077;Laerm;51039;49.696;10.808;2023-09-18T12:45:48;39.62;38.23;40.67;;
64077;Laerm;51039;49.696;10.808;2023-09-18T12:48:14;39.55;38.29;40.78;;
64077;Laerm;51039;49.696;10.808;2023-09-18T12:50:40;39.51;38.16;40.65;;
64077;Laerm;51039;49.696;10.808;2023-09-18T12:53:10;39.45;38.14;40.58;;
64077;Laerm;51039;49.696;10.808;2023-09-18T12:55:36;39.41;38.15;40.67;;
64077;Laerm;51039;49.696;10.808;2023-09-18T12:58:02;39.35;38.17;40.51;;
64077;Laerm;51039;49.696;10.808;2023-09-18T13:00:33;39.30;38.01;40.44;;
64077;Laerm;51039;49.696;10.808;2023-09-18T13:02:58;39.17;37.90;40.47;;
64077;Laerm;51039;49.696;10.808;2023-09-18T13:05:24;38.99;37.61;40.11;;
64077;Laerm;51039;49.696;10.808;2023-09-18T13:07:51;38.92;37.70;40.03;;
64077;Laerm;51039;49.696;10.808;2023-09-18T13:10:16;38.93;37.66;40.18;;
64077;Laerm;51039;49.696;10.808;2023-09-18T13:12:45;38.98;37.91;40.19;;
64077;Laerm;51039;49.696;10.808;2023-09-18T13:15:11;39.05;37.86;40.40;;
64077;Laerm;51039;49.696;10.808;2023-09-18T13:17:44;39.07;37.92;40.39;;
64077;Laerm;51039;49.696;10.808;2023-09-18T13:20:20;39.11;38.01;40.21;;
64077;Laerm;51039;49.696;10.808;2023-09-18T13:22:49;39.03;37.83;40.13;;
64077;Laerm;51039;49.696;10.808;2023-09-18T13:25:20;38.87;37.66;40.03;;
64077;Laerm;51039;49.696;10.808;2023-09-18T13:27:46;38.82;37.63;39.95;;
64077;Laerm;51039;49.696;10.808;2023-09-18T13:30:11;38.85;37.66;39.96;;
64077;Laerm;51039;49.696;10.808;2023-09-18T13:32:36;38.93;37.70;40.00;;
64077;Laerm;51039;49.696;10.808;2023-09-18T13:35:03;39.07;37.87;40.35;;
64077;Laerm;51039;49.696;10.808;2023-09-18T13:37:34;39.05;37.86;40.28;;